Time;durP1;ratioP1;P1;durP2;ratioP2;P2;SDS_P1;SDS_P2;PMS_P1;PMS_P2;Temp;Humidity;BMP_temperature;BMP_pressure;BME280_temperature;BME280_humidity;BME280_pressure;Samples;Min_cycle;Max_cycle;Signal;HPM_P1;HPM_P2
2023/06/01 00:05:39;;;;;;;7.05;3.60;;;;;;;13.23;52.67;101145.22;20995563;28;20245;-80
2023/06/01 00:15:41;;;;;;;6.70;4.03;;;;;;;12.54;54.58;101153.94;20982892;28;20215;-77
2023/06/01 00:25:43;;;;;;;7.03;4.80;;;;;;;12.17;55.00;101142.09;20902635;28;20180;-78
2023/06/01 00:35:46;;;;;;;8.70;5.50;;;;;;;12.37;54.73;101141.47;20964264;28;20352;-78
2023/06/01 00:45:48;;;;;;;9.65;4.72;;;;;;;12.37;54.61;101129.31;21002691;28;20251;-78
2023/06/01 00:55:51;;;;;;;8.77;5.60;;;;;;;12.25;55.02;101132.81;20980770;28;20266;-79
2023/06/01 01:06:04;;;;;;;9.00;5.97;;;;;;;11.22;58.45;101118.50;20993292;28;20230;-78
2023/06/01 01:16:12;;;;;;;10.73;6.00;;;;;;;12.09;55.36;101130.78;20983863;28;20682;-77
2023/06/01 01:26:24;;;;;;;12.18;7.28;;;;;;;11.77;56.58;101127.31;20942653;28;20248;-78
2023/06/01 01:36:27;;;;;;;9.25;5.93;;;;;;;12.09;55.50;101133.63;20963396;28;20215;-78
2023/06/01 01:46:36;;;;;;;11.38;5.45;;;;;;;11.96;57.08;101136.28;20941070;28;20480;-78
2023/06/01 01:56:39;;;;;;;9.02;6.07;;;;;;;11.88;55.93;101133.47;20968215;28;20280;-80
2023/06/01 02:06:41;;;;;;;10.38;6.30;;;;;;;11.31;58.66;101136.31;21011189;28;20227;-78
2023/06/01 02:16:45;;;;;;;10.95;6.57;;;;;;;11.18;58.19;101142.94;20982395;28;20261;-78
2023/06/01 02:26:51;;;;;;;16.27;8.00;;;;;;;10.98;58.78;101150.84;20992812;28;20195;-78
2023/06/01 02:36:57;;;;;;;14.80;8.82;;;;;;;10.48;60.07;101141.69;20937438;28;20227;-78
2023/06/01 02:46:59;;;;;;;19.10;11.10;;;;;;;10.60;59.53;101141.16;20976329;28;20195;-78
2023/06/01 02:57:01;;;;;;;33.75;19.27;;;;;;;9.88;60.92;101149.72;20935726;28;20228;-78
2023/06/01 03:07:17;;;;;;;47.03;28.67;;;;;;;10.15;60.62;101149.63;20940030;28;20280;-78
2023/06/01 03:17:25;;;;;;;44.17;28.27;;;;;;;10.12;60.37;101147.44;20968819;28;20233;-78
2023/06/01 03:27:28;;;;;;;39.03;24.95;;;;;;;10.10;59.65;101149.72;20991348;28;20267;-78
2023/06/01 03:37:30;;;;;;;28.60;15.18;;;;;;;9.80;60.73;101147.66;21025134;28;20214;-79
2023/06/01 03:47:33;;;;;;;24.27;15.02;;;;;;;10.06;60.40;101162.81;21005232;28;20186;-78
2023/06/01 03:57:37;;;;;;;26.42;16.20;;;;;;;10.12;57.67;101150.25;20988181;28;20240;-78
2023/06/01 04:07:39;;;;;;;28.75;18.48;;;;;;;10.21;58.07;101155.97;20934309;28;20220;-79
2023/06/01 04:17:43;;;;;;;25.13;18.15;;;;;;;9.36;59.02;101171.69;20964479;28;20277;-78
2023/06/01 04:27:47;;;;;;;26.83;18.30;;;;;;;9.92;56.90;101167.69;20903303;28;20192;-78
2023/06/01 04:37:50;;;;;;;24.80;15.80;;;;;;;9.64;57.47;101177.34;20968894;28;20287;-81
2023/06/01 04:47:52;;;;;;;21.25;15.10;;;;;;;9.79;58.05;101179.81;20974994;28;20188;-79
2023/06/01 04:58:00;;;;;;;24.55;16.38;;;;;;;9.95;55.69;101171.84;20967315;28;20344;-78
2023/06/01 05:08:04;;;;;;;26.43;17.13;;;;;;;9.53;57.46;101163.44;20968273;28;20242;-80
2023/06/01 05:18:06;;;;;;;21.87;15.43;;;;;;;9.94;56.12;101156.91;20937448;28;20261;-78
2023/06/01 05:28:09;;;;;;;22.70;16.02;;;;;;;9.35;56.76;101172.00;20960081;28;20191;-78
2023/06/01 05:38:14;;;;;;;29.97;22.97;;;;;;;9.36;57.53;101173.69;20970373;28;20223;-78
2023/06/01 05:48:16;;;;;;;34.30;24.93;;;;;;;9.57;56.89;101178.56;20952682;28;20241;-78
2023/06/01 05:58:24;;;;;;;58.60;37.60;;;;;;;9.42;55.13;101186.53;20939075;28;20219;-78
2023/06/01 06:08:27;;;;;;;44.30;31.63;;;;;;;9.80;54.41;101182.34;20947980;28;20211;-78
2023/06/01 06:18:29;;;;;;;28.13;18.58;;;;;;;10.03;52.36;101168.25;20980273;28;20304;-78
2023/06/01 06:28:31;;;;;;;45.47;30.63;;;;;;;10.48;51.00;101172.75;20981223;28;20249;-78
2023/06/01 06:38:33;;;;;;;45.77;33.83;;;;;;;10.47;51.48;101165.47;20959237;28;20277;-78
2023/06/01 06:48:36;;;;;;;40.10;29.58;;;;;;;10.35;50.22;101175.66;20974259;28;20180;-78
2023/06/01 06:58:38;;;;;;;39.70;30.67;;;;;;;10.39;50.96;101183.16;20959085;28;20207;-78
2023/06/01 07:08:40;;;;;;;43.53;30.58;;;;;;;10.75;49.60;101185.91;20966250;28;20272;-80
2023/06/01 07:18:43;;;;;;;36.97;26.65;;;;;;;10.79;50.48;101184.13;20959858;28;20214;-80
2023/06/01 07:28:46;;;;;;;25.70;16.35;;;;;;;11.25;48.70;101191.34;21000026;28;20187;-79
2023/06/01 07:38:51;;;;;;;28.83;22.00;;;;;;;10.91;48.08;101192.00;20958862;28;20215;-78
2023/06/01 07:48:54;;;;;;;20.60;14.65;;;;;;;11.64;47.78;101191.31;20970876;28;20530;-79
2023/06/01 07:58:56;;;;;;;33.50;21.63;;;;;;;11.51;47.85;101203.59;20979501;28;20215;-81
2023/06/01 08:08:58;;;;;;;22.58;15.38;;;;;;;11.88;47.20;101190.88;20975435;28;20215;-80
2023/06/01 08:19:01;;;;;;;19.55;16.33;;;;;;;11.32;46.77;101180.38;20983520;28;20269;-79
2023/06/01 08:29:03;;;;;;;19.95;12.52;;;;;;;11.91;46.18;101186.53;20989247;28;20454;-78
2023/06/01 08:39:22;;;;;;;17.90;14.20;;;;;;;11.76;47.46;101170.06;20977620;28;20211;-79
2023/06/01 08:49:25;;;;;;;26.92;16.30;;;;;;;12.59;45.17;101153.75;20987816;28;20285;-82
2023/06/01 08:59:29;;;;;;;21.95;15.68;;;;;;;12.56;45.13;101146.75;20974246;28;20508;-78
2023/06/01 09:09:32;;;;;;;22.08;16.02;;;;;;;12.50;44.58;101138.78;20972516;28;20840;-77
2023/06/01 09:19:43;;;;;;;18.25;14.75;;;;;;;13.07;44.33;101125.94;20983241;28;20604;-79
2023/06/01 09:29:55;;;;;;;16.35;11.43;;;;;;;13.03;43.92;101127.81;20995257;28;20701;-79
2023/06/01 09:39:58;;;;;;;15.80;11.13;;;;;;;13.03;44.95;101124.16;20930151;28;20212;-81
2023/06/01 09:50:03;;;;;;;17.63;11.55;;;;;;;13.49;43.55;101103.38;21006219;28;20237;-79
2023/06/01 10:00:06;;;;;;;13.35;9.30;;;;;;;13.80;41.90;101086.81;21007114;28;20257;-80
2023/06/01 10:10:13;;;;;;;14.57;8.50;;;;;;;14.80;42.17;101091.34;20983865;28;20261;-79
2023/06/01 10:20:16;;;;;;;12.57;8.73;;;;;;;14.79;39.55;101089.66;20961927;28;20244;-78
2023/06/01 10:30:18;;;;;;;14.43;8.48;;;;;;;13.93;42.35;101078.38;20978841;28;20211;-82
2023/06/01 10:40:21;;;;;;;11.40;8.27;;;;;;;14.32;43.14;101065.63;20983680;28;20664;-78
2023/06/01 10:50:24;;;;;;;13.52;9.52;;;;;;;14.19;41.89;101061.91;20972711;28;20206;-78
2023/06/01 11:00:26;;;;;;;13.75;9.43;;;;;;;14.97;41.63;101067.56;20978108;28;20215;-81
2023/06/01 11:10:55;;;;;;;16.00;9.68;;;;;;;14.81;42.32;101066.59;20945739;28;20302;-81
2023/06/01 11:20:58;;;;;;;15.18;8.90;;;;;;;15.58;40.82;101064.66;20991317;28;20554;-78
2023/06/01 11:31:02;;;;;;;17.13;11.32;;;;;;;14.83;41.94;101067.91;20977656;28;20210;-78
2023/06/01 11:41:06;;;;;;;15.93;10.48;;;;;;;15.28;41.27;101055.59;20958024;28;20673;-80
2023/06/01 11:51:08;;;;;;;17.60;12.80;;;;;;;15.28;41.67;101063.31;20981088;28;20184;-79
2023/06/01 12:01:10;;;;;;;15.68;12.65;;;;;;;15.84;40.86;101050.84;20939705;28;20241;-81
2023/06/01 12:11:16;;;;;;;21.98;13.90;;;;;;;15.02;41.86;101057.97;20987191;28;20228;-79
2023/06/01 12:21:18;;;;;;;22.90;14.13;;;;;;;15.92;40.40;101061.28;20963240;28;20238;-80
2023/06/01 12:31:21;;;;;;;17.00;13.25;;;;;;;15.42;41.17;101043.81;20995781;28;20215;-78
2023/06/01 12:41:24;;;;;;;18.15;13.20;;;;;;;16.72;38.75;101043.19;20995816;28;20573;-78
2023/06/01 12:51:26;;;;;;;19.77;12.85;;;;;;;16.26;39.58;101034.19;20977290;28;20237;-77
2023/06/01 13:01:29;;;;;;;16.15;12.57;;;;;;;15.95;39.64;101036.94;20997684;28;20211;-80
2023/06/01 13:11:31;;;;;;;14.45;11.90;;;;;;;15.99;39.12;101029.34;20981783;28;20288;-77
2023/06/01 13:21:33;;;;;;;16.70;10.90;;;;;;;16.28;40.36;101028.13;21063548;28;20484;-79
2023/06/01 13:31:37;;;;;;;13.35;10.63;;;;;;;16.23;39.88;101025.53;20998254;28;20215;-77
2023/06/01 13:41:40;;;;;;;12.35;7.97;;;;;;;17.53;38.18;101012.16;21058031;28;20603;-78
2023/06/01 13:51:43;;;;;;;11.13;8.18;;;;;;;16.75;38.36;101021.66;21012253;28;20188;-77
2023/06/01 14:01:45;;;;;;;14.63;7.45;;;;;;;17.07;38.58;101003.34;21014941;28;20276;-78
2023/06/01 14:11:48;;;;;;;8.23;7.43;;;;;;;16.59;39.48;100996.78;21010494;28;20215;-78
2023/06/01 14:21:50;;;;;;;10.90;7.47;;;;;;;16.67;39.02;100991.31;20997342;28;20219;-77
2023/06/01 14:31:53;;;;;;;9.82;6.82;;;;;;;16.19;40.61;100979.03;20971198;28;20265;-77
2023/06/01 14:41:56;;;;;;;8.65;6.50;;;;;;;15.77;40.28;100972.94;20959381;28;20288;-79
2023/06/01 14:51:58;;;;;;;9.82;6.30;;;;;;;17.25;37.82;100956.06;20979560;28;20881;-81
2023/06/01 15:02:01;;;;;;;8.32;6.50;;;;;;;16.18;40.33;100934.66;20961832;28;20219;-76
2023/06/01 15:12:04;;;;;;;7.43;6.72;;;;;;;16.47;38.98;100934.19;20984400;28;20288;-79
2023/06/01 15:22:06;;;;;;;9.00;6.90;;;;;;;17.19;38.67;100922.50;20952619;28;20216;-76
2023/06/01 15:32:09;;;;;;;9.07;6.55;;;;;;;16.47;39.52;100925.63;20983376;28;20211;-78
2023/06/01 15:42:11;;;;;;;10.93;6.90;;;;;;;16.22;39.82;100924.16;20968756;28;20276;-78
2023/06/01 15:52:13;;;;;;;10.02;7.20;;;;;;;16.68;37.89;100913.16;20982657;28;20199;-77
2023/06/01 16:02:16;;;;;;;9.70;5.18;;;;;;;16.51;38.84;100897.22;20958246;28;20211;-76
2023/06/01 16:12:18;;;;;;;6.55;5.53;;;;;;;16.65;38.34;100873.97;20878875;28;20236;-76
2023/06/01 16:22:20;;;;;;;4.63;3.80;;;;;;;16.69;38.24;100857.78;20900175;28;20215;-78
2023/06/01 16:32:25;;;;;;;5.45;4.03;;;;;;;17.01;37.79;100853.63;20914356;28;20219;-76
2023/06/01 16:42:28;;;;;;;4.78;3.67;;;;;;;16.43;38.46;100842.09;20887835;28;20219;-76
2023/06/01 16:52:33;;;;;;;5.80;3.70;;;;;;;16.60;38.03;100838.81;20887160;28;20302;-78
2023/06/01 17:02:35;;;;;;;4.68;4.25;;;;;;;16.46;39.40;100832.78;20891873;28;20212;-79
2023/06/01 17:12:38;;;;;;;5.47;4.15;;;;;;;16.47;40.44;100834.44;20968627;28;20222;-79
2023/06/01 17:22:40;;;;;;;4.32;3.60;;;;;;;15.15;43.69;100849.13;20990618;28;20215;-79
2023/06/01 17:32:42;;;;;;;4.88;3.67;;;;;;;16.01;42.12;100849.56;20973748;28;20507;-77
2023/06/01 17:42:45;;;;;;;4.13;3.42;;;;;;;15.50;43.43;100849.38;21005227;28;20345;-77
2023/06/01 17:52:47;;;;;;;4.78;3.25;;;;;;;15.34;43.25;100851.34;20992524;28;20482;-77
2023/06/01 18:02:50;;;;;;;5.15;3.83;;;;;;;14.46;45.01;100858.75;20968613;28;20332;-76
2023/06/01 18:12:52;;;;;;;6.32;3.90;;;;;;;14.02;46.25;100871.88;20976087;28;20700;-77
2023/06/01 18:22:54;;;;;;;6.50;4.53;;;;;;;14.47;43.41;100886.00;20983092;28;20219;-76
2023/06/01 18:32:57;;;;;;;5.40;3.78;;;;;;;14.39;43.37;100884.91;21008096;28;20224;-77
2023/06/01 18:42:59;;;;;;;8.98;3.88;;;;;;;14.35;43.17;100875.47;21002077;28;20211;-78
2023/06/01 18:53:02;;;;;;;6.53;3.97;;;;;;;14.08;43.42;100873.31;20954352;28;20280;-78
2023/06/01 19:03:04;;;;;;;7.97;3.72;;;;;;;13.59;43.47;100881.66;20994845;28;20280;-79
2023/06/01 19:13:07;;;;;;;11.35;3.58;;;;;;;13.42;43.21;100881.88;20979281;28;20227;-77
2023/06/01 19:23:10;;;;;;;7.15;3.47;;;;;;;13.36;43.53;100878.41;20978741;28;20215;-78
2023/06/01 19:33:16;;;;;;;5.60;3.45;;;;;;;13.72;43.42;100880.53;20966691;28;20219;-80
2023/06/01 19:43:42;;;;;;;6.95;3.78;;;;;;;13.43;44.16;100883.53;20875420;28;20308;-77
2023/06/01 19:53:47;;;;;;;10.15;4.53;;;;;;;13.50;43.98;100892.28;20923067;28;20710;-78
2023/06/01 20:03:49;;;;;;;8.73;4.70;;;;;;;12.80;45.87;100899.72;20926903;28;20215;-79
2023/06/01 20:13:52;;;;;;;5.80;3.00;;;;;;;12.85;45.24;100899.50;21000121;28;20528;-78
2023/06/01 20:23:55;;;;;;;5.43;2.97;;;;;;;12.42;45.86;100907.44;20998633;28;20219;-77
2023/06/01 20:33:57;;;;;;;9.00;2.80;;;;;;;12.29;46.09;100910.13;20995107;28;20585;-79
2023/06/01 20:44:00;;;;;;;5.88;3.20;;;;;;;12.30;45.58;100906.13;20994430;28;20211;-78
2023/06/01 20:54:05;;;;;;;7.03;2.67;;;;;;;11.39;46.60;100917.84;20974612;28;20584;-77
2023/06/01 21:04:10;;;;;;;6.47;2.53;;;;;;;11.31;46.31;100932.81;20976204;28;20211;-77
2023/06/01 21:14:13;;;;;;;5.57;2.67;;;;;;;11.63;44.64;100923.00;21021351;28;20215;-78
2023/06/01 21:24:15;;;;;;;5.32;3.00;;;;;;;11.94;43.84;100917.09;20984193;28;20215;-77
2023/06/01 21:34:17;;;;;;;10.18;3.00;;;;;;;11.04;45.84;100930.28;20980161;28;20215;-77
2023/06/01 21:44:20;;;;;;;6.53;2.70;;;;;;;11.56;46.55;100929.16;21009675;28;20219;-77
2023/06/01 21:54:22;;;;;;;4.35;2.42;;;;;;;11.17;46.56;100938.63;20990689;28;20187;-78
2023/06/01 22:04:25;;;;;;;6.13;2.50;;;;;;;11.16;45.26;100942.59;20992813;28;20680;-81
2023/06/01 22:14:27;;;;;;;3.80;2.20;;;;;;;11.37;44.25;100942.81;20982563;28;20195;-81
2023/06/01 22:24:29;;;;;;;3.78;2.17;;;;;;;11.18;44.46;100956.41;20947772;28;20220;-80
2023/06/01 22:34:32;;;;;;;2.85;1.73;;;;;;;10.92;44.62;100960.03;20943164;28;20272;-80
2023/06/01 22:44:34;;;;;;;6.20;2.35;;;;;;;11.00;43.72;100958.38;20950724;28;20227;-81
2023/06/01 22:54:37;;;;;;;3.80;2.70;;;;;;;11.48;43.02;100949.78;20947889;28;20647;-82
2023/06/01 23:04:39;;;;;;;7.60;2.53;;;;;;;10.90;43.85;100948.22;20941206;28;20224;-78
2023/06/01 23:14:42;;;;;;;4.20;2.22;;;;;;;11.71;43.14;100946.75;20984898;28;20251;-81
2023/06/01 23:24:44;;;;;;;4.60;2.53;;;;;;;10.92;43.84;100945.06;20977608;28;20555;-80
2023/06/01 23:34:47;;;;;;;4.30;3.03;;;;;;;10.81;43.94;100947.38;20972595;28;20269;-80
2023/06/01 23:44:49;;;;;;;5.20;2.35;;;;;;;11.00;43.59;100949.91;20956682;28;20299;-81
2023/06/01 23:54:51;;;;;;;5.20;2.70;;;;;;;10.38;45.08;100954.84;20991876;28;20242;-81
